createdAt,value
2019-03-20T00:00:54.851Z,18.28
2019-03-20T00:01:55.094Z,18.28
2019-03-20T00:02:55.269Z,18.28
2019-03-20T00:03:54.904Z,18.28
2019-03-20T00:04:54.850Z,18.28
2019-03-20T00:05:54.969Z,18.28
2019-03-20T00:06:54.899Z,18.28
2019-03-20T00:07:54.979Z,18.26
2019-03-20T00:08:54.841Z,18.26
2019-03-20T00:09:55.117Z,18.26
2019-03-20T00:10:55.050Z,18.25
2019-03-20T00:11:55.085Z,18.25
2019-03-20T00:12:54.803Z,18.25
2019-03-20T00:13:55.068Z,18.25
2019-03-20T00:14:55.090Z,18.24
2019-03-20T00:15:55.123Z,18.23
2019-03-20T00:16:54.791Z,18.23
2019-03-20T00:17:54.765Z,18.23
2019-03-20T00:18:54.836Z,18.23
2019-03-20T00:19:54.803Z,18.22
2019-03-20T00:20:54.809Z,18.22
2019-03-20T00:21:54.828Z,18.22
2019-03-20T00:22:54.832Z,18.21
2019-03-20T00:23:55.192Z,18.21
2019-03-20T00:24:54.869Z,18.21
2019-03-20T00:25:54.874Z,18.2
2019-03-20T00:26:54.841Z,18.2
2019-03-20T00:27:54.911Z,18.2
2019-03-20T00:28:54.951Z,18.2
2019-03-20T00:29:54.907Z,18.2
2019-03-20T00:30:54.975Z,18.19
2019-03-20T00:31:55.079Z,18.19
2019-03-20T00:32:55.141Z,18.19
2019-03-20T00:33:54.966Z,18.18
2019-03-20T00:35:01.693Z,18.17
2019-03-20T00:35:54.815Z,18.17
2019-03-20T00:36:54.808Z,18.18
2019-03-20T00:37:54.924Z,18.18
2019-03-20T00:38:55.011Z,18.18
2019-03-20T00:39:54.894Z,18.17
2019-03-20T00:40:55.126Z,18.18
2019-03-20T00:41:54.853Z,18.17
2019-03-20T00:42:54.885Z,18.17
2019-03-20T00:43:54.897Z,18.17
2019-03-20T00:44:54.975Z,18.16
2019-03-20T00:45:55.020Z,18.16
2019-03-20T00:46:54.998Z,18.16
2019-03-20T00:47:55.040Z,18.15
2019-03-20T00:48:54.971Z,18.15
2019-03-20T00:49:55.077Z,18.15
2019-03-20T00:50:55.001Z,18.14
2019-03-20T00:51:55.096Z,18.14
2019-03-20T00:52:54.774Z,18.14
2019-03-20T00:53:54.760Z,18.14
2019-03-20T00:54:54.755Z,18.13
2019-03-20T00:55:54.969Z,18.14
2019-03-20T00:56:54.801Z,18.12
2019-03-20T00:57:54.848Z,18.12
2019-03-20T00:58:54.832Z,18.12
2019-03-20T00:59:54.814Z,18.12
2019-03-20T01:00:54.892Z,18.12
2019-03-20T01:01:55.045Z,18.12
2019-03-20T01:02:55.014Z,18.1
2019-03-20T01:03:54.738Z,18.11
2019-03-20T01:04:54.928Z,18.1
2019-03-20T01:05:54.927Z,18.1
2019-03-20T01:06:54.971Z,18.1
2019-03-20T01:07:54.974Z,18.1
2019-03-20T01:08:55.031Z,18.1
2019-03-20T01:09:55.039Z,18.09
2019-03-20T01:10:54.779Z,18.09
2019-03-20T01:11:54.772Z,18.09
2019-03-20T01:12:54.817Z,18.08
2019-03-20T01:13:54.793Z,18.09
2019-03-20T01:14:54.816Z,18.09
2019-03-20T01:15:55.001Z,18.08
2019-03-20T01:16:54.816Z,18.07
2019-03-20T01:17:54.844Z,18.07
2019-03-20T01:18:54.860Z,18.06
2019-03-20T01:19:54.885Z,18.05
2019-03-20T01:20:55.001Z,18.05
2019-03-20T01:21:54.930Z,18.06
2019-03-20T01:22:54.940Z,18.06
2019-03-20T01:23:54.923Z,18.04
2019-03-20T01:24:54.997Z,18.05
2019-03-20T01:25:54.975Z,18.04
2019-03-20T01:26:54.975Z,18.04
2019-03-20T01:27:55.191Z,18.04
2019-03-20T01:28:54.741Z,18.04
2019-03-20T01:29:54.739Z,18.04
2019-03-20T01:30:54.821Z,18.04
2019-03-20T01:31:54.921Z,18.03
2019-03-20T01:32:54.760Z,18.02
2019-03-20T01:33:55.224Z,18.03
2019-03-20T01:34:54.795Z,18.02
2019-03-20T01:35:54.801Z,18.02
2019-03-20T01:36:54.966Z,18.02
2019-03-20T01:37:55.999Z,18.02
2019-03-20T01:38:54.973Z,18.02
2019-03-20T01:39:54.978Z,18.01
2019-03-20T01:40:54.951Z,18.01
2019-03-20T01:41:54.934Z,18.01
2019-03-20T01:42:54.924Z,18
2019-03-20T01:43:54.922Z,18
2019-03-20T01:44:54.932Z,17.99
2019-03-20T01:45:54.771Z,18
2019-03-20T01:46:54.789Z,17.98
2019-03-20T01:47:54.774Z,17.99
2019-03-20T01:48:54.804Z,17.98
2019-03-20T01:49:54.904Z,17.98
2019-03-20T01:50:55.005Z,17.98
2019-03-20T01:51:54.822Z,17.98
2019-03-20T01:52:54.891Z,17.98
2019-03-20T01:53:55.010Z,17.97
2019-03-20T01:54:54.880Z,17.98
2019-03-20T01:55:54.965Z,17.97
2019-03-20T01:56:54.889Z,17.97
2019-03-20T01:57:55.015Z,17.96
2019-03-20T01:58:54.940Z,17.97
2019-03-20T01:59:55.038Z,17.96
2019-03-20T02:00:54.976Z,17.96
2019-03-20T02:01:54.965Z,17.96
2019-03-20T02:02:54.713Z,17.96
2019-03-20T02:03:54.745Z,17.96
2019-03-20T02:04:54.729Z,17.96
2019-03-20T02:05:54.754Z,17.95
2019-03-20T02:06:54.815Z,17.94
2019-03-20T04:06:54.838Z,17.67
2019-03-20T04:07:54.715Z,17.67
2019-03-20T04:08:54.795Z,17.67
2019-03-20T04:09:54.798Z,17.67
2019-03-20T04:11:54.807Z,17.67
2019-03-20T04:12:54.874Z,17.66
2019-03-20T04:13:54.802Z,17.66
2019-03-20T04:14:54.760Z,17.66
2019-03-20T04:16:54.949Z,17.66
2019-03-20T04:18:54.984Z,17.65
2019-03-20T04:20:54.948Z,17.65
2019-03-20T04:21:55.221Z,17.64
2019-03-20T04:22:54.952Z,17.65
2019-03-20T04:23:54.778Z,17.64
2019-03-20T04:25:54.698Z,17.64
2019-03-20T04:26:54.726Z,17.63
2019-03-20T04:28:54.742Z,17.63
2019-03-20T04:30:54.775Z,17.63
2019-03-20T04:31:54.765Z,17.62
2019-03-20T04:32:54.812Z,17.62
2019-03-20T04:35:54.862Z,17.63
2019-03-20T04:36:54.847Z,17.63
2019-03-20T04:37:54.881Z,17.63
2019-03-20T04:40:54.905Z,17.65
2019-03-20T04:41:54.702Z,17.67
2019-03-20T04:42:54.731Z,17.67
2019-03-20T04:43:54.790Z,17.67
2019-03-20T04:45:54.844Z,17.68
2019-03-20T04:47:54.868Z,17.69
2019-03-20T04:48:54.814Z,17.7
2019-03-20T04:49:54.788Z,17.71
2019-03-20T04:50:54.813Z,17.72
2019-03-20T04:52:54.834Z,17.73
2019-03-20T04:53:54.848Z,17.73
2019-03-20T04:54:54.862Z,17.74
2019-03-20T04:55:54.966Z,17.76
2019-03-20T04:58:54.653Z,17.79
2019-03-20T04:59:54.664Z,17.79
2019-03-20T05:00:54.778Z,17.81
2019-03-20T05:01:54.684Z,17.83
2019-03-20T05:03:54.691Z,17.86
2019-03-20T05:05:54.862Z,17.89
2019-03-20T05:06:59.677Z,17.92
2019-03-20T05:07:54.757Z,17.93
2019-03-20T05:08:55.116Z,17.95
2019-03-20T05:10:54.824Z,17.98
2019-03-20T05:11:54.830Z,18.01
2019-03-20T05:12:54.830Z,18.03
2019-03-20T05:14:54.866Z,18.07
2019-03-20T05:16:54.670Z,18.1
2019-03-20T05:17:54.703Z,18.12
2019-03-20T05:18:54.702Z,18.15
2019-03-20T05:20:54.741Z,18.19
2019-03-20T05:21:54.816Z,18.21
2019-03-20T05:22:54.776Z,18.23
2019-03-20T05:23:54.744Z,18.25
2019-03-20T05:25:54.812Z,18.28
2019-03-20T05:26:54.911Z,18.29
2019-03-20T05:27:55.278Z,18.32
2019-03-20T05:28:54.821Z,18.33
2019-03-20T05:30:54.929Z,18.36
2019-03-20T05:31:54.969Z,18.38
2019-03-20T05:34:54.661Z,18.42
2019-03-20T05:35:54.691Z,18.43
2019-03-20T05:37:54.641Z,18.46
2019-03-20T05:38:54.662Z,18.47
2019-03-20T05:39:54.725Z,18.49
2019-03-20T05:40:54.715Z,18.5
2019-03-20T05:42:54.740Z,18.54
2019-03-20T05:44:54.871Z,18.55
2019-03-20T05:45:54.791Z,18.56
2019-03-20T05:46:54.820Z,18.57
2019-03-20T05:47:54.971Z,18.58
2019-03-20T05:49:54.815Z,18.59
2019-03-20T05:50:54.954Z,18.6
2019-03-20T05:51:54.909Z,18.6
2019-03-20T05:53:54.743Z,18.62
2019-03-20T05:54:54.678Z,18.63
2019-03-20T05:55:54.674Z,18.64
2019-03-20T05:56:54.729Z,18.64
2019-03-20T05:59:54.896Z,18.66
2019-03-20T06:00:54.765Z,18.66
2019-03-20T06:03:54.800Z,18.67
2019-03-20T06:04:54.793Z,18.68
2019-03-20T06:05:54.811Z,18.68
2019-03-20T06:06:54.848Z,18.68
2019-03-20T06:09:54.850Z,18.7
2019-03-20T06:10:55.145Z,18.7
2019-03-20T06:12:54.624Z,18.71
2019-03-20T06:13:54.685Z,18.71
2019-03-20T06:15:54.630Z,18.71
2019-03-20T06:16:54.905Z,18.71
2019-03-20T06:17:54.650Z,18.71
2019-03-20T06:18:54.711Z,18.72
2019-03-20T06:20:54.745Z,18.72
2019-03-20T06:21:54.931Z,18.72
2019-03-20T06:22:54.768Z,18.72
2019-03-20T06:23:55.893Z,18.72
2019-03-20T06:25:54.930Z,18.71
2019-03-20T06:26:54.889Z,18.72
2019-03-20T06:28:54.818Z,18.72
2019-03-20T06:29:54.861Z,18.72
2019-03-20T06:30:54.895Z,18.72
2019-03-20T06:32:54.782Z,18.72
2019-03-20T06:33:54.775Z,18.71
2019-03-20T06:34:54.704Z,18.71
2019-03-20T06:35:54.679Z,18.71
2019-03-20T06:37:54.761Z,18.71
2019-03-20T06:38:54.813Z,18.7
2019-03-20T06:39:54.761Z,18.7
2019-03-20T06:40:54.764Z,18.7
2019-03-20T06:42:55.701Z,18.7
2019-03-20T06:43:54.782Z,18.7
2019-03-20T06:44:54.766Z,18.6
2019-03-20T06:45:54.900Z,18.55
2019-03-20T06:47:54.831Z,18.17
2019-03-20T06:48:54.971Z,18.06
2019-03-20T06:49:54.852Z,18
2019-03-20T06:50:55.719Z,18.05
2019-03-20T06:52:54.636Z,18.2
2019-03-20T06:54:55.030Z,18.26
2019-03-20T06:55:54.681Z,18.29
2019-03-20T06:56:54.686Z,18.35
2019-03-20T06:58:54.779Z,18.41
2019-03-20T06:59:54.702Z,18.44
2019-03-20T07:00:54.776Z,18.45
2019-03-20T07:01:54.742Z,18.48
2019-03-20T07:04:54.834Z,18.5
2019-03-20T07:05:54.784Z,18.5
2019-03-20T07:06:54.800Z,18.5
2019-03-20T07:07:54.825Z,18.51
2019-03-20T07:10:54.605Z,18.52
2019-03-20T07:12:54.732Z,18.54
2019-03-20T07:13:54.663Z,18.54
2019-03-20T07:14:54.709Z,18.55
2019-03-20T07:15:54.740Z,18.56
2019-03-20T07:18:54.746Z,18.59
2019-03-20T07:19:54.731Z,18.6
2019-03-20T07:20:54.787Z,18.6
2019-03-20T07:21:54.756Z,18.6
2019-03-20T07:23:54.865Z,18.63
2019-03-20T07:24:54.898Z,18.64
2019-03-20T07:25:55.082Z,18.65
2019-03-20T07:26:54.949Z,18.66
2019-03-20T07:28:54.624Z,18.67
2019-03-20T07:30:54.608Z,18.69
2019-03-20T07:31:55.775Z,18.7
2019-03-20T07:32:54.802Z,18.72
2019-03-20T07:33:54.656Z,18.72
2019-03-20T07:35:54.675Z,18.73
2019-03-20T07:36:54.842Z,18.73
2019-03-20T07:37:56.782Z,18.74
2019-03-20T07:39:54.921Z,18.75
2019-03-20T07:40:54.827Z,18.76
2019-03-20T07:41:54.746Z,18.76
2019-03-20T07:44:55.096Z,18.78
2019-03-20T07:45:54.836Z,18.78
2019-03-20T07:46:54.959Z,18.79
2019-03-20T07:47:54.868Z,18.79
2019-03-20T07:49:54.711Z,18.8
2019-03-20T07:50:54.685Z,18.8
2019-03-20T07:51:54.669Z,18.81
2019-03-20T07:52:54.661Z,18.82
2019-03-20T07:54:55.073Z,18.82
2019-03-20T07:55:54.722Z,18.82
2019-03-20T07:56:54.809Z,18.83
2019-03-20T07:57:54.809Z,18.84
2019-03-20T07:59:54.809Z,18.84
2019-03-20T08:00:54.801Z,18.84
2019-03-20T08:02:54.774Z,18.84
2019-03-20T08:03:54.808Z,18.84
2019-03-20T08:04:54.822Z,18.84
2019-03-20T08:05:54.848Z,18.84
2019-03-20T08:07:54.546Z,18.84
2019-03-20T08:08:54.580Z,18.84
2019-03-20T08:09:54.595Z,18.84
2019-03-20T08:10:54.626Z,18.84
2019-03-20T08:12:54.632Z,18.84
2019-03-20T08:14:54.734Z,18.84
2019-03-20T08:15:54.782Z,18.84
2019-03-20T08:16:54.855Z,18.84
2019-03-20T08:17:54.657Z,18.84
2019-03-20T08:19:54.777Z,18.84
2019-03-20T08:20:54.870Z,18.84
2019-03-20T08:21:54.732Z,18.84
2019-03-20T08:22:54.754Z,18.84
2019-03-20T08:24:56.116Z,18.84
2019-03-20T08:25:54.943Z,18.84
2019-03-20T08:26:54.920Z,18.84
2019-03-20T08:28:54.819Z,18.84
2019-03-20T08:29:54.633Z,18.84
2019-03-20T08:30:54.701Z,18.84
2019-03-20T08:31:54.639Z,18.84
2019-03-20T08:34:54.780Z,18.84
2019-03-20T08:35:54.658Z,18.84
2019-03-20T08:36:54.967Z,18.84
2019-03-20T08:37:54.707Z,18.84
2019-03-20T08:40:54.764Z,18.84
2019-03-20T08:41:54.763Z,18.84
2019-03-20T08:42:55.130Z,18.84
2019-03-20T08:43:54.798Z,18.84
2019-03-20T08:45:54.912Z,18.83
2019-03-20T08:46:54.787Z,18.83
2019-03-20T08:47:54.928Z,18.83
2019-03-20T08:48:54.589Z,18.82
2019-03-20T08:50:54.683Z,18.84
2019-03-20T08:51:54.683Z,18.84
2019-03-20T08:53:56.612Z,18.86
2019-03-20T08:54:54.652Z,18.86
2019-03-20T08:55:54.630Z,18.9
2019-03-20T08:56:54.655Z,18.9
2019-03-20T08:58:54.840Z,18.9
2019-03-20T08:59:54.736Z,18.9
2019-03-20T09:00:54.723Z,18.9
2019-03-20T09:02:55.480Z,18.91
2019-03-20T09:04:55.002Z,18.91
2019-03-20T09:05:54.822Z,18.92
2019-03-20T09:06:54.812Z,18.92
2019-03-20T09:07:54.948Z,18.94
2019-03-20T09:09:54.587Z,18.95
2019-03-20T09:10:54.619Z,18.95
2019-03-20T09:11:54.641Z,18.95
2019-03-20T09:12:54.726Z,18.96
2019-03-20T09:14:54.748Z,18.97
2019-03-20T09:15:54.686Z,18.98
2019-03-20T09:16:54.804Z,18.99
2019-03-20T09:17:54.728Z,18.99
2019-03-20T09:19:54.717Z,19
2019-03-20T09:20:54.744Z,19.01
2019-03-20T09:21:54.834Z,19.01
2019-03-20T09:22:55.235Z,19.02
2019-03-20T09:24:54.828Z,19.03
2019-03-20T09:25:54.813Z,19.04
2019-03-20T09:27:54.550Z,19.03
2019-03-20T09:28:54.637Z,19.05
2019-03-20T09:29:54.590Z,19.07
2019-03-20T09:31:54.618Z,19.09
2019-03-20T09:32:54.609Z,19.09
2019-03-20T09:33:55.684Z,19.09
2019-03-20T09:34:55.094Z,19.09
2019-03-20T09:36:54.662Z,19.09
2019-03-20T09:37:54.772Z,19.1
2019-03-20T09:38:54.813Z,19.11
2019-03-20T09:39:54.795Z,19.1
2019-03-20T09:41:54.754Z,19.09
2019-03-20T09:42:54.960Z,19.09
2019-03-20T09:43:55.150Z,19.09
2019-03-20T09:44:54.762Z,19.09
2019-03-20T09:46:54.789Z,19.1
2019-03-20T09:48:54.661Z,19.09
2019-03-20T09:50:54.726Z,19.09
2019-03-20T09:51:54.968Z,19.1
2019-03-20T09:52:54.706Z,19.09
2019-03-20T09:53:54.652Z,19.1
2019-03-20T09:55:54.657Z,19.11
2019-03-20T09:56:54.756Z,19.1
2019-03-20T09:57:54.704Z,19.1
2019-03-20T09:59:54.724Z,19.11
2019-03-20T10:00:54.737Z,19.11
2019-03-20T10:01:54.898Z,19.11
2019-03-20T10:02:54.868Z,19.13
2019-03-20T10:04:54.885Z,19.15
2019-03-20T10:05:54.914Z,19.15
2019-03-20T10:07:54.615Z,19.15
2019-03-20T10:08:54.895Z,19.15
2019-03-20T10:09:54.588Z,19.14
2019-03-20T10:10:54.588Z,19.15
2019-03-20T10:12:54.809Z,19.15
2019-03-20T10:13:54.627Z,19.18
2019-03-20T10:15:54.650Z,19.18
2019-03-20T10:16:54.684Z,19.18
2019-03-20T10:17:54.708Z,19.17
2019-03-20T10:20:54.820Z,19.22
2019-03-20T10:21:54.820Z,19.23
2019-03-20T10:22:54.798Z,19.21
2019-03-20T10:23:54.833Z,19.2
2019-03-20T10:25:54.802Z,19.19
2019-03-20T10:26:54.539Z,19.18
2019-03-20T10:27:55.066Z,19.18
2019-03-20T10:28:54.672Z,19.18
2019-03-20T10:30:54.698Z,19.16
2019-03-20T10:31:54.682Z,19.16
2019-03-20T10:32:54.648Z,19.16
2019-03-20T10:34:54.712Z,19.15
2019-03-20T10:36:54.720Z,19.15
2019-03-20T10:37:54.798Z,19.14
2019-03-20T10:39:07.408Z,19.13
2019-03-20T10:39:54.757Z,19.14
2019-03-20T10:42:54.889Z,19.15
2019-03-20T10:43:54.530Z,19.15
2019-03-20T10:44:54.541Z,19.15
2019-03-20T10:46:54.588Z,19.13
2019-03-20T10:48:56.815Z,19.11
2019-03-20T10:49:54.723Z,19.1
2019-03-20T10:50:54.659Z,19.09
2019-03-20T10:51:54.771Z,19.09
2019-03-20T10:53:54.671Z,19.09
2019-03-20T10:54:54.687Z,19.09
2019-03-20T10:55:54.858Z,19.09
2019-03-20T10:56:54.778Z,19.08
2019-03-20T10:58:54.755Z,19.07
2019-03-20T10:59:54.782Z,19.07
2019-03-20T11:00:54.869Z,19.06
2019-03-20T11:02:54.600Z,19.05
2019-03-20T11:03:54.587Z,19.04
2019-03-20T11:04:54.561Z,19.04
2019-03-20T11:05:54.624Z,19.03
2019-03-20T11:07:54.749Z,19.03
2019-03-20T11:09:54.732Z,19.03
2019-03-20T11:10:54.870Z,19.03
2019-03-20T11:11:54.724Z,19.03
2019-03-20T11:12:54.797Z,19.03
2019-03-20T11:14:54.843Z,19.02
2019-03-20T11:15:54.809Z,19.03
2019-03-20T11:16:54.790Z,19.02
2019-03-20T11:17:54.835Z,19.01
2019-03-20T11:19:56.566Z,19
2019-03-20T11:20:54.544Z,19
2019-03-20T11:22:54.578Z,19
2019-03-20T11:23:54.599Z,19
2019-03-20T11:24:54.569Z,18.99
2019-03-20T11:25:54.760Z,18.98
2019-03-20T11:27:54.675Z,18.99
2019-03-20T11:28:54.633Z,19.02
2019-03-20T11:29:54.643Z,19.03
2019-03-20T11:30:54.661Z,19.03
2019-03-20T11:32:55.087Z,19.04
2019-03-20T11:33:54.813Z,19.06
2019-03-20T11:34:54.725Z,19.06
2019-03-20T11:35:54.900Z,19.06
2019-03-20T11:37:54.542Z,19.09
2019-03-20T11:38:54.620Z,19.09
2019-03-20T11:39:54.693Z,19.13
2019-03-20T11:40:54.579Z,19.13
2019-03-20T11:42:54.613Z,19.12
2019-03-20T11:43:54.609Z,19.12
2019-03-20T11:44:54.661Z,19.13
2019-03-20T11:45:54.783Z,19.13
2019-03-20T11:47:54.668Z,19.12
2019-03-20T11:48:54.689Z,19.12
2019-03-20T11:49:54.751Z,19.12
2019-03-20T11:50:54.704Z,19.11
2019-03-20T11:52:58.298Z,19.12
2019-03-20T11:53:54.802Z,19.1
2019-03-20T11:55:54.592Z,19.11
2019-03-20T11:56:54.560Z,19.11
2019-03-20T11:57:54.561Z,19.1
2019-03-20T11:58:54.733Z,19.1
2019-03-20T12:00:54.652Z,19.12
2019-03-20T12:01:54.597Z,19.11
2019-03-20T12:02:54.610Z,19.12
2019-03-20T12:03:54.804Z,19.11
2019-03-20T12:05:54.668Z,19.12
2019-03-20T12:06:54.671Z,19.14
2019-03-20T12:08:54.791Z,19.14
2019-03-20T12:10:54.753Z,19.13
2019-03-20T12:11:54.860Z,19.14
2019-03-20T12:12:54.569Z,19.15
2019-03-20T12:13:54.625Z,19.14
2019-03-20T12:15:54.683Z,19.13
2019-03-20T12:16:54.577Z,19.15
2019-03-20T12:17:54.585Z,19.15
2019-03-20T12:18:54.613Z,19.16
2019-03-20T12:20:54.626Z,19.16
2019-03-20T12:21:54.665Z,19.17
2019-03-20T12:22:54.688Z,19.18
2019-03-20T12:23:54.653Z,19.18
2019-03-20T12:25:54.701Z,19.21
2019-03-20T12:26:54.717Z,19.19
2019-03-20T12:28:54.865Z,19.19
2019-03-20T12:29:54.483Z,19.18
2019-03-20T12:31:54.507Z,19.17
2019-03-20T12:33:54.553Z,19.17
2019-03-20T12:35:54.584Z,19.17
2019-03-20T12:36:56.936Z,19.17
2019-03-20T12:37:54.972Z,19.17
2019-03-20T12:38:54.630Z,19.17
2019-03-20T12:40:54.628Z,19.15
2019-03-20T12:41:54.651Z,19.15
2019-03-20T12:42:54.683Z,19.15
2019-03-20T12:43:54.695Z,19.15
2019-03-20T12:46:54.734Z,19.13
2019-03-20T12:47:54.596Z,19.12
2019-03-20T12:48:54.542Z,19.13
2019-03-20T12:49:54.681Z,19.12
2019-03-20T12:51:54.661Z,19.11
2019-03-20T12:52:54.584Z,19.11
2019-03-20T12:54:54.695Z,19.11
2019-03-20T12:55:54.711Z,19.11
2019-03-20T12:56:54.647Z,19.1
2019-03-20T12:57:54.655Z,19.11
2019-03-20T12:59:54.662Z,19.09
2019-03-20T13:00:54.917Z,19.09
2019-03-20T13:01:54.800Z,19.09
2019-03-20T13:03:54.475Z,19.09
2019-03-20T13:04:54.488Z,19.09
2019-03-20T13:05:54.591Z,19.09
2019-03-20T13:06:54.533Z,19.09
2019-03-20T13:08:54.590Z,19.08
2019-03-20T13:10:04.141Z,19.08
2019-03-20T13:10:54.555Z,19.08
2019-03-20T13:11:54.651Z,19.07
2019-03-20T13:13:54.635Z,19.07
2019-03-20T13:14:54.645Z,19.07
2019-03-20T13:15:54.629Z,19.07
2019-03-20T13:17:54.669Z,19.07
2019-03-20T13:18:54.665Z,19.07
2019-03-20T13:19:54.696Z,19.06
2019-03-20T13:20:54.673Z,19.06
2019-03-20T13:22:54.491Z,19.06
2019-03-20T13:23:54.494Z,19.06
2019-03-20T13:24:54.609Z,19.06
2019-03-20T13:26:54.573Z,19.05
2019-03-20T13:27:54.555Z,19.06
2019-03-20T13:28:54.704Z,19.05
2019-03-20T13:29:54.750Z,19.05
2019-03-20T13:32:54.780Z,19.04
2019-03-20T13:33:54.646Z,19.07
2019-03-20T13:34:54.871Z,19.08
2019-03-20T13:35:54.704Z,19.09
2019-03-20T13:37:54.829Z,19.1
2019-03-20T13:38:56.819Z,19.11
2019-03-20T13:39:54.469Z,19.11
2019-03-20T13:40:54.643Z,19.12
2019-03-20T13:42:54.638Z,19.15
2019-03-20T13:43:54.513Z,19.15
2019-03-20T13:44:54.570Z,19.16
2019-03-20T13:45:54.561Z,19.16
2019-03-20T13:48:54.679Z,19.19
2019-03-20T13:49:54.585Z,19.19
2019-03-20T13:51:54.654Z,19.21
2019-03-20T13:53:54.697Z,19.21
2019-03-20T13:54:54.669Z,19.23
2019-03-20T13:55:54.706Z,19.23
2019-03-20T13:56:54.706Z,19.23
2019-03-20T13:58:54.512Z,19.25
2019-03-20T13:59:54.536Z,19.25
2019-03-20T14:00:54.560Z,19.26
2019-03-20T14:01:54.563Z,19.27
2019-03-20T14:03:54.681Z,19.29
2019-03-20T14:04:54.624Z,19.3
2019-03-20T14:05:54.619Z,19.3
2019-03-20T14:06:54.622Z,19.31
2019-03-20T14:08:54.723Z,19.32
2019-03-20T14:09:54.657Z,19.33
2019-03-20T14:10:54.728Z,19.33
2019-03-20T14:12:54.738Z,19.33
2019-03-20T14:13:54.694Z,19.35
2019-03-20T14:14:54.717Z,19.35
2019-03-20T14:17:54.526Z,19.36
2019-03-20T14:18:54.505Z,19.37
2019-03-20T14:19:54.592Z,19.37
2019-03-20T14:20:54.693Z,19.38
2019-03-20T14:22:54.590Z,19.38
2019-03-20T14:23:54.757Z,19.38
2019-03-20T14:24:54.619Z,19.38
2019-03-20T14:25:55.041Z,19.4
2019-03-20T14:27:54.655Z,19.39
2019-03-20T14:28:54.638Z,19.44
2019-03-20T14:30:54.658Z,19.43
2019-03-20T14:31:54.677Z,19.43
2019-03-20T14:32:54.494Z,19.44
2019-03-20T14:33:54.497Z,19.43
2019-03-20T14:36:54.552Z,19.44
2019-03-20T14:37:55.259Z,19.44
2019-03-20T14:38:54.676Z,19.44
2019-03-20T14:39:54.600Z,19.44
2019-03-20T14:41:54.585Z,19.44
2019-03-20T14:42:54.860Z,19.45
2019-03-20T14:43:54.701Z,19.45
2019-03-20T14:44:54.777Z,19.45
2019-03-20T14:46:54.994Z,19.45
2019-03-20T14:48:54.744Z,19.45
2019-03-20T14:49:54.704Z,19.45
2019-03-20T14:52:54.587Z,19.45
2019-03-20T14:53:54.473Z,19.45
2019-03-20T14:55:54.535Z,19.45
2019-03-20T14:56:54.491Z,19.45
2019-03-20T14:57:54.544Z,19.45
2019-03-20T14:58:54.582Z,19.45
2019-03-20T15:00:54.595Z,19.45
2019-03-20T15:02:54.727Z,19.45
2019-03-20T15:03:54.642Z,19.45
2019-03-20T15:04:54.622Z,19.45
2019-03-20T15:05:54.678Z,19.45
2019-03-20T15:07:54.688Z,19.46
2019-03-20T15:08:54.577Z,19.46
2019-03-20T15:09:54.496Z,19.46
2019-03-20T15:10:54.515Z,19.46
2019-03-20T15:13:54.670Z,19.45
2019-03-20T15:14:54.666Z,19.46
2019-03-20T15:15:54.600Z,19.46
2019-03-20T15:16:54.661Z,19.46
2019-03-20T15:18:54.717Z,19.46
2019-03-20T15:19:54.654Z,19.47
2019-03-20T15:21:54.640Z,19.47
2019-03-20T15:22:54.686Z,19.48
2019-03-20T15:23:54.683Z,19.47
2019-03-20T15:24:54.713Z,19.47
2019-03-20T15:26:54.459Z,19.48
2019-03-20T15:27:54.571Z,19.48
2019-03-20T15:28:54.591Z,19.48
2019-03-20T15:29:54.645Z,19.48
2019-03-20T15:31:54.681Z,19.47
2019-03-20T15:32:54.516Z,19.47
2019-03-20T15:33:54.538Z,19.46
2019-03-20T15:35:54.572Z,19.47
2019-03-20T15:36:54.572Z,19.47
2019-03-20T15:37:54.724Z,19.48
2019-03-20T15:38:54.764Z,19.47
2019-03-20T15:40:56.714Z,19.48
2019-03-20T15:42:54.483Z,19.48
2019-03-20T15:44:02.999Z,19.47
2019-03-20T15:44:54.628Z,19.48
2019-03-20T15:45:54.533Z,19.48
2019-03-20T15:47:54.575Z,19.48
2019-03-20T15:48:54.647Z,19.49
2019-03-20T15:49:54.430Z,19.49
2019-03-20T15:50:54.579Z,19.48
2019-03-20T15:52:54.765Z,19.48
2019-03-20T15:53:54.622Z,19.49
2019-03-20T15:54:54.698Z,19.48
2019-03-20T15:57:54.413Z,19.48
2019-03-20T15:58:54.664Z,19.48
2019-03-20T15:59:54.447Z,19.48
2019-03-20T16:00:54.443Z,19.47
2019-03-20T16:03:54.414Z,19.48
2019-03-20T16:04:54.486Z,19.47
2019-03-20T16:05:54.526Z,19.48
2019-03-20T16:06:54.543Z,19.47
2019-03-20T16:08:57.266Z,19.47
2019-03-20T16:09:54.532Z,19.47
2019-03-20T16:11:54.415Z,19.48
2019-03-20T16:14:54.922Z,19.48
2019-03-20T16:15:54.636Z,19.48
2019-03-20T16:16:54.670Z,19.47
2019-03-20T16:17:54.662Z,19.48
2019-03-20T16:19:56.726Z,19.48
2019-03-20T16:20:54.496Z,19.48
2019-03-20T16:22:54.504Z,19.48
2019-03-20T16:23:54.539Z,19.48
2019-03-20T16:24:54.628Z,19.48
2019-03-20T16:25:54.557Z,19.47
2019-03-20T16:28:54.584Z,19.47
2019-03-20T16:29:54.603Z,19.47
2019-03-20T16:30:54.732Z,19.47
2019-03-20T16:31:54.778Z,19.47
2019-03-20T16:33:54.669Z,19.47
2019-03-20T16:34:54.650Z,19.47
2019-03-20T16:36:54.600Z,19.46
2019-03-20T16:37:54.593Z,19.46
2019-03-20T16:38:54.474Z,19.46
2019-03-20T16:39:54.471Z,19.47
2019-03-20T16:41:54.611Z,19.47
2019-03-20T16:42:54.507Z,19.46
2019-03-20T16:43:54.537Z,19.45
2019-03-20T16:45:54.552Z,19.46
2019-03-20T16:46:54.546Z,19.46
2019-03-20T16:49:54.651Z,19.47
2019-03-20T16:50:54.591Z,19.49
2019-03-20T16:51:54.687Z,19.5
2019-03-20T16:53:54.517Z,19.51
2019-03-20T16:54:54.478Z,19.52
2019-03-20T16:55:54.484Z,19.53
2019-03-20T16:57:54.781Z,19.51
2019-03-20T16:59:54.545Z,19.51
2019-03-20T17:01:54.509Z,19.5
2019-03-20T17:02:54.636Z,19.51
2019-03-20T17:03:54.572Z,19.51
2019-03-20T17:04:54.565Z,19.51
2019-03-20T17:06:54.652Z,19.49
2019-03-20T17:07:54.626Z,19.5
2019-03-20T17:09:54.656Z,19.49
2019-03-20T17:10:54.654Z,19.48
2019-03-20T17:11:54.599Z,19.48
2019-03-20T17:12:54.403Z,19.48
2019-03-20T17:16:54.442Z,19.49
2019-03-20T17:17:54.471Z,19.49
2019-03-20T17:18:55.840Z,19.48
2019-03-20T17:19:54.620Z,19.48
2019-03-20T17:22:54.540Z,19.48
2019-03-20T17:23:54.560Z,19.48
2019-03-20T17:24:54.652Z,19.48
2019-03-20T17:26:54.527Z,19.44
2019-03-20T17:27:54.764Z,19.43
2019-03-20T17:28:54.603Z,19.44
2019-03-20T17:29:54.628Z,19.44
2019-03-20T17:31:54.717Z,19.44
2019-03-20T17:32:54.430Z,19.45
2019-03-20T17:33:54.444Z,19.45
2019-03-20T17:34:54.576Z,19.45
2019-03-20T17:35:54.475Z,19.45
2019-03-20T17:37:54.462Z,19.45
2019-03-20T17:39:54.661Z,19.45
2019-03-20T17:40:54.874Z,19.46
2019-03-20T17:41:54.654Z,19.46
2019-03-20T17:42:54.568Z,19.46
2019-03-20T17:44:54.418Z,19.46
2019-03-20T17:45:54.661Z,19.46
2019-03-20T17:47:54.747Z,19.47
2019-03-20T17:49:54.780Z,19.48
2019-03-20T17:50:54.539Z,19.48
2019-03-20T17:51:54.455Z,19.49
2019-03-20T17:52:54.471Z,19.49
2019-03-20T17:54:54.467Z,19.48
2019-03-20T17:55:54.489Z,19.49
2019-03-20T17:56:54.530Z,19.5
2019-03-20T17:57:54.522Z,19.49
2019-03-20T17:59:54.538Z,19.5
2019-03-20T18:00:54.623Z,19.49
2019-03-20T18:01:54.560Z,19.49
2019-03-20T18:02:54.769Z,19.49
2019-03-20T18:04:54.718Z,19.51
2019-03-20T18:05:54.608Z,19.51
2019-03-20T18:06:54.562Z,19.51
2019-03-20T18:07:54.461Z,19.51
2019-03-20T18:09:54.492Z,19.51
2019-03-20T18:11:54.493Z,19.51
2019-03-20T18:12:54.574Z,19.51
2019-03-20T18:13:54.527Z,19.52
2019-03-20T18:14:54.548Z,19.52
2019-03-20T18:16:54.641Z,19.52
2019-03-20T18:17:54.397Z,19.51
2019-03-20T18:18:54.638Z,19.51
2019-03-20T18:19:54.652Z,19.51
2019-03-20T18:21:54.700Z,19.5
2019-03-20T18:22:54.632Z,19.5
2019-03-20T18:24:54.876Z,19.5
2019-03-20T18:25:54.569Z,19.5
2019-03-20T18:26:54.478Z,19.49
2019-03-20T18:28:54.470Z,19.48
2019-03-20T18:29:54.351Z,19.48
2019-03-20T18:30:54.587Z,19.46
2019-03-20T18:31:54.549Z,19.46
2019-03-20T18:33:54.488Z,19.45
2019-03-20T18:34:54.542Z,19.44
2019-03-20T18:35:54.632Z,19.44
2019-03-20T18:36:54.506Z,19.43
2019-03-20T18:37:54.616Z,19.42
2019-03-20T18:39:54.587Z,19.41
2019-03-20T18:40:54.921Z,19.41
2019-03-20T18:41:58.302Z,19.4
2019-03-20T18:42:54.520Z,19.4
2019-03-20T18:44:54.497Z,19.39
2019-03-20T18:45:54.483Z,19.39
2019-03-20T18:46:54.553Z,19.39
2019-03-20T18:47:54.544Z,19.39
2019-03-20T18:50:54.634Z,19.38
2019-03-20T18:51:54.537Z,19.38